sensor_id;sensor_type;location;lat;lon;timestamp;pressure;altitude;pressure_sealevel;temperature;humidity
61394;BME280;48555;50.952;-0.120;2023-05-24T00:02:06;102131.59;;;13.56;64.65
61394;BME280;48555;50.952;-0.120;2023-05-24T00:04:32;102132.69;;;13.52;64.68
61394;BME280;48555;50.952;-0.120;2023-05-24T00:06:57;102130.25;;;13.49;64.65
61394;BME280;48555;50.952;-0.120;2023-05-24T00:09:23;102129.53;;;13.47;64.74
61394;BME280;48555;50.952;-0.120;2023-05-24T00:11:48;102123.50;;;13.45;65.04
61394;BME280;48555;50.952;-0.120;2023-05-24T00:14:14;102119.94;;;13.46;64.76
61394;BME280;48555;50.952;-0.120;2023-05-24T00:16:39;102122.69;;;13.45;64.86
61394;BME280;48555;50.952;-0.120;2023-05-24T00:19:05;102128.97;;;13.42;64.79
61394;BME280;48555;50.952;-0.120;2023-05-24T00:21:30;102132.81;;;13.36;64.91
61394;BME280;48555;50.952;-0.120;2023-05-24T00:23:56;102126.31;;;13.28;64.77
61394;BME280;48555;50.952;-0.120;2023-05-24T00:26:22;102122.19;;;13.24;65.09
61394;BME280;48555;50.952;-0.120;2023-05-24T00:28:47;102121.69;;;13.17;65.19
61394;BME280;48555;50.952;-0.120;2023-05-24T00:31:13;102123.75;;;13.12;65.12
61394;BME280;48555;50.952;-0.120;2023-05-24T00:33:39;102121.03;;;13.13;65.31
61394;BME280;48555;50.952;-0.120;2023-05-24T00:36:04;102126.47;;;13.10;65.33
61394;BME280;48555;50.952;-0.120;2023-05-24T00:38:30;102116.22;;;13.06;65.25
61394;BME280;48555;50.952;-0.120;2023-05-24T00:40:55;102118.59;;;13.10;65.30
61394;BME280;48555;50.952;-0.120;2023-05-24T00:43:21;102123.19;;;13.07;65.74
61394;BME280;48555;50.952;-0.120;2023-05-24T00:45:47;102116.41;;;13.03;65.78
61394;BME280;48555;50.952;-0.120;2023-05-24T00:48:14;102120.75;;;13.04;65.67
61394;BME280;48555;50.952;-0.120;2023-05-24T00:50:40;102118.97;;;13.04;65.74
61394;BME280;48555;50.952;-0.120;2023-05-24T00:53:06;102105.06;;;13.02;65.79
61394;BME280;48555;50.952;-0.120;2023-05-24T00:55:33;102100.00;;;12.99;65.68
61394;BME280;48555;50.952;-0.120;2023-05-24T00:57:59;102112.94;;;13.02;65.79
61394;BME280;48555;50.952;-0.120;2023-05-24T01:00:26;102102.81;;;12.96;65.60
61394;BME280;48555;50.952;-0.120;2023-05-24T01:02:52;102106.47;;;12.93;65.81
61394;BME280;48555;50.952;-0.120;2023-05-24T01:05:19;102106.66;;;12.90;66.13
61394;BME280;48555;50.952;-0.120;2023-05-24T01:15:59;102094.72;;;12.85;66.35
61394;BME280;48555;50.952;-0.120;2023-05-24T01:18:32;102095.75;;;12.82;66.29
61394;BME280;48555;50.952;-0.120;2023-05-24T01:26:31;102087.97;;;12.66;66.63
61394;BME280;48555;50.952;-0.120;2023-05-24T01:29:02;102091.53;;;12.65;66.96
61394;BME280;48555;50.952;-0.120;2023-05-24T01:31:29;102091.91;;;12.59;66.89
61394;BME280;48555;50.952;-0.120;2023-05-24T01:33:54;102099.84;;;12.58;67.06
61394;BME280;48555;50.952;-0.120;2023-05-24T01:36:19;102091.50;;;12.51;67.37
61394;BME280;48555;50.952;-0.120;2023-05-24T01:38:45;102091.50;;;12.51;67.26
61394;BME280;48555;50.952;-0.120;2023-05-24T01:43:55;102093.00;;;12.55;67.53
61394;BME280;48555;50.952;-0.120;2023-05-24T01:46:41;102091.66;;;12.48;67.75
61394;BME280;48555;50.952;-0.120;2023-05-24T01:49:25;102095.22;;;12.47;67.73
61394;BME280;48555;50.952;-0.120;2023-05-24T01:52:04;102096.81;;;12.49;67.75
61394;BME280;48555;50.952;-0.120;2023-05-24T01:54:33;102094.94;;;12.52;67.43
61394;BME280;48555;50.952;-0.120;2023-05-24T01:57:04;102093.09;;;12.54;67.50
61394;BME280;48555;50.952;-0.120;2023-05-24T01:59:31;102089.63;;;12.53;67.41
61394;BME280;48555;50.952;-0.120;2023-05-24T02:01:57;102087.19;;;12.50;67.83
61394;BME280;48555;50.952;-0.120;2023-05-24T02:04:23;102082.25;;;12.44;67.80
61394;BME280;48555;50.952;-0.120;2023-05-24T02:06:48;102086.50;;;12.46;68.02
61394;BME280;48555;50.952;-0.120;2023-05-24T02:09:14;102083.81;;;12.48;67.87
61394;BME280;48555;50.952;-0.120;2023-05-24T02:11:40;102081.25;;;12.46;68.01
61394;BME280;48555;50.952;-0.120;2023-05-24T02:14:05;102080.22;;;12.49;67.77
61394;BME280;48555;50.952;-0.120;2023-05-24T02:16:30;102082.84;;;12.49;67.81
61394;BME280;48555;50.952;-0.120;2023-05-24T02:18:56;102079.31;;;12.50;68.19
61394;BME280;48555;50.952;-0.120;2023-05-24T02:21:22;102074.16;;;12.48;68.38
61394;BME280;48555;50.952;-0.120;2023-05-24T02:23:48;102070.75;;;12.46;68.27
61394;BME280;48555;50.952;-0.120;2023-05-24T02:26:14;102065.78;;;12.42;68.69
61394;BME280;48555;50.952;-0.120;2023-05-24T02:28:42;102067.41;;;12.44;69.00
61394;BME280;48555;50.952;-0.120;2023-05-24T02:31:07;102066.53;;;12.44;69.11
61394;BME280;48555;50.952;-0.120;2023-05-24T02:33:32;102067.47;;;12.43;69.18
61394;BME280;48555;50.952;-0.120;2023-05-24T02:35:59;102068.59;;;12.39;69.55
61394;BME280;48555;50.952;-0.120;2023-05-24T02:38:25;102064.09;;;12.41;69.73
61394;BME280;48555;50.952;-0.120;2023-05-24T02:40:50;102057.16;;;12.40;70.25
61394;BME280;48555;50.952;-0.120;2023-05-24T02:43:16;102053.94;;;12.35;70.51
61394;BME280;48555;50.952;-0.120;2023-05-24T02:45:41;102053.88;;;12.36;70.68
61394;BME280;48555;50.952;-0.120;2023-05-24T02:48:06;102053.88;;;12.36;70.73
61394;BME280;48555;50.952;-0.120;2023-05-24T02:50:32;102061.75;;;12.36;70.57
61394;BME280;48555;50.952;-0.120;2023-05-24T02:52:57;102060.81;;;12.37;70.78
61394;BME280;48555;50.952;-0.120;2023-05-24T02:55:23;102047.28;;;12.29;70.67
61394;BME280;48555;50.952;-0.120;2023-05-24T02:57:48;102058.09;;;12.39;70.63
61394;BME280;48555;50.952;-0.120;2023-05-24T03:00:14;102055.56;;;12.37;70.84
61394;BME280;48555;50.952;-0.120;2023-05-24T03:02:39;102052.94;;;12.37;70.74
61394;BME280;48555;50.952;-0.120;2023-05-24T03:05:06;102052.75;;;12.40;70.90
61394;BME280;48555;50.952;-0.120;2023-05-24T03:07:32;102046.91;;;12.35;70.53
61394;BME280;48555;50.952;-0.120;2023-05-24T03:09:57;102050.25;;;12.39;70.62
61394;BME280;48555;50.952;-0.120;2023-05-24T03:12:22;102045.06;;;12.37;70.79
61394;BME280;48555;50.952;-0.120;2023-05-24T03:14:48;102058.19;;;12.37;70.47
61394;BME280;48555;50.952;-0.120;2023-05-24T03:17:13;102043.47;;;12.35;70.08
61394;BME280;48555;50.952;-0.120;2023-05-24T03:19:38;102050.50;;;12.34;70.10
61394;BME280;48555;50.952;-0.120;2023-05-24T03:22:04;102040.34;;;12.28;69.92
61394;BME280;48555;50.952;-0.120;2023-05-24T03:24:29;102050.59;;;12.33;69.94
61394;BME280;48555;50.952;-0.120;2023-05-24T03:26:55;102052.34;;;12.32;70.00
61394;BME280;48555;50.952;-0.120;2023-05-24T03:29:21;102049.06;;;12.28;69.67
61394;BME280;48555;50.952;-0.120;2023-05-24T03:31:46;102042.97;;;12.28;69.70
61394;BME280;48555;50.952;-0.120;2023-05-24T03:34:12;102051.69;;;12.28;69.90
61394;BME280;48555;50.952;-0.120;2023-05-24T03:36:37;102051.69;;;12.28;69.96
61394;BME280;48555;50.952;-0.120;2023-05-24T03:39:02;102043.75;;;12.30;69.64
61394;BME280;48555;50.952;-0.120;2023-05-24T03:41:29;102044.00;;;12.25;69.69
61394;BME280;48555;50.952;-0.120;2023-05-24T03:43:55;102046.72;;;12.24;69.57
61394;BME280;48555;50.952;-0.120;2023-05-24T03:46:20;102052.03;;;12.22;69.74
61394;BME280;48555;50.952;-0.120;2023-05-24T03:48:47;102048.84;;;12.17;69.84
61394;BME280;48555;50.952;-0.120;2023-05-24T03:51:12;102044.78;;;12.12;70.25
61394;BME280;48555;50.952;-0.120;2023-05-24T03:53:38;102047.50;;;12.10;70.40
61394;BME280;48555;50.952;-0.120;2023-05-24T03:56:03;102052.94;;;12.07;70.51
61394;BME280;48555;50.952;-0.120;2023-05-24T03:58:29;102040.94;;;12.03;70.39
61394;BME280;48555;50.952;-0.120;2023-05-24T04:00:54;102041.69;;;12.05;70.39
61394;BME280;48555;50.952;-0.120;2023-05-24T04:03:19;102040.75;;;12.06;70.43
61394;BME280;48555;50.952;-0.120;2023-05-24T04:05:45;102042.34;;;12.09;70.32
61394;BME280;48555;50.952;-0.120;2023-05-24T04:08:11;102047.34;;;12.13;70.27
61394;BME280;48555;50.952;-0.120;2023-05-24T04:10:37;102047.41;;;12.12;70.15
61394;BME280;48555;50.952;-0.120;2023-05-24T04:13:02;102049.00;;;12.14;70.05
61394;BME280;48555;50.952;-0.120;2023-05-24T04:15:27;102050.78;;;12.14;69.89
61394;BME280;48555;50.952;-0.120;2023-05-24T04:17:53;102053.34;;;12.15;70.05
61394;BME280;48555;50.952;-0.120;2023-05-24T04:20:20;102055.13;;;12.15;69.96
61394;BME280;48555;50.952;-0.120;2023-05-24T04:22:49;102056.69;;;12.17;70.19
61394;BME280;48555;50.952;-0.120;2023-05-24T04:25:15;102064.56;;;12.17;70.23
61394;BME280;48555;50.952;-0.120;2023-05-24T04:27:40;102027.97;;;12.00;70.62
61394;BME280;48555;50.952;-0.120;2023-05-24T04:30:06;102058.47;;;12.17;70.56
61394;BME280;48555;50.952;-0.120;2023-05-24T04:32:33;102061.09;;;12.17;70.47
61394;BME280;48555;50.952;-0.120;2023-05-24T04:34:59;102062.53;;;12.22;70.84
61394;BME280;48555;50.952;-0.120;2023-05-24T04:37:27;102061.81;;;12.35;70.63
61394;BME280;48555;50.952;-0.120;2023-05-24T04:39:53;102058.03;;;12.55;70.39
61394;BME280;48555;50.952;-0.120;2023-05-24T04:42:19;102049.06;;;12.73;70.88
61394;BME280;48555;50.952;-0.120;2023-05-24T04:44:44;102045.91;;;12.96;70.26
61394;BME280;48555;50.952;-0.120;2023-05-24T04:47:10;102037.38;;;13.22;70.12
61394;BME280;48555;50.952;-0.120;2023-05-24T04:49:37;102037.56;;;13.47;70.02
61394;BME280;48555;50.952;-0.120;2023-05-24T04:52:03;102034.31;;;13.71;69.46
61394;BME280;48555;50.952;-0.120;2023-05-24T04:54:29;102034.19;;;13.99;69.29
61394;BME280;48555;50.952;-0.120;2023-05-24T04:56:54;102035.72;;;14.29;68.87
61394;BME280;48555;50.952;-0.120;2023-05-24T04:59:20;102035.59;;;14.58;68.43
61394;BME280;48555;50.952;-0.120;2023-05-24T05:01:45;102028.75;;;14.81;67.38
61394;BME280;48555;50.952;-0.120;2023-05-24T05:04:11;102033.38;;;15.15;66.96
61394;BME280;48555;50.952;-0.120;2023-05-24T05:06:36;102038.16;;;15.47;66.34
61394;BME280;48555;50.952;-0.120;2023-05-24T05:09:08;102046.25;;;15.81;65.50
61394;BME280;48555;50.952;-0.120;2023-05-24T05:11:35;102040.28;;;16.14;64.95
61394;BME280;48555;50.952;-0.120;2023-05-24T05:14:00;102037.25;;;16.43;64.04
61394;BME280;48555;50.952;-0.120;2023-05-24T05:16:26;102037.06;;;16.57;63.17
61394;BME280;48555;50.952;-0.120;2023-05-24T05:18:51;102043.06;;;16.70;62.70
61394;BME280;48555;50.952;-0.120;2023-05-24T05:21:17;102046.59;;;16.93;62.14
61394;BME280;48555;50.952;-0.120;2023-05-24T05:23:43;102040.94;;;17.20;61.34
61394;BME280;48555;50.952;-0.120;2023-05-24T05:26:09;102041.66;;;17.45;60.55
61394;BME280;48555;50.952;-0.120;2023-05-24T05:28:35;102039.66;;;17.69;59.73
61394;BME280;48555;50.952;-0.120;2023-05-24T05:31:01;102027.34;;;17.91;58.70
61394;BME280;48555;50.952;-0.120;2023-05-24T05:33:26;102026.16;;;18.16;57.98
61394;BME280;48555;50.952;-0.120;2023-05-24T05:35:51;102033.22;;;18.27;57.62
61394;BME280;48555;50.952;-0.120;2023-05-24T05:38:17;102030.31;;;18.09;57.69
61394;BME280;48555;50.952;-0.120;2023-05-24T05:40:42;102038.94;;;18.11;57.49
61394;BME280;48555;50.952;-0.120;2023-05-24T05:43:08;102031.41;;;18.27;56.95
61394;BME280;48555;50.952;-0.120;2023-05-24T05:45:33;102034.16;;;18.47;56.43
61394;BME280;48555;50.952;-0.120;2023-05-24T05:47:59;102026.28;;;18.77;56.09
61394;BME280;48555;50.952;-0.120;2023-05-24T05:50:24;102039.78;;;19.05;54.92
61394;BME280;48555;50.952;-0.120;2023-05-24T05:52:50;102041.97;;;19.21;54.51
61394;BME280;48555;50.952;-0.120;2023-05-24T05:55:15;102041.72;;;19.34;54.08
61394;BME280;48555;50.952;-0.120;2023-05-24T05:57:40;102035.59;;;19.52;53.72
61394;BME280;48555;50.952;-0.120;2023-05-24T06:00:06;102039.59;;;19.78;53.33
61394;BME280;48555;50.952;-0.120;2023-05-24T06:02:32;102030.91;;;20.05;52.41
61394;BME280;48555;50.952;-0.120;2023-05-24T06:04:57;102032.00;;;20.31;51.96
61394;BME280;48555;50.952;-0.120;2023-05-24T06:07:23;102026.66;;;20.60;51.24
61394;BME280;48555;50.952;-0.120;2023-05-24T06:09:48;102029.41;;;20.78;50.57
61394;BME280;48555;50.952;-0.120;2023-05-24T06:12:13;102036.94;;;20.83;50.35
61394;BME280;48555;50.952;-0.120;2023-05-24T06:14:39;102036.78;;;20.84;50.09
61394;BME280;48555;50.952;-0.120;2023-05-24T06:17:05;102040.69;;;20.90;49.88
61394;BME280;48555;50.952;-0.120;2023-05-24T06:19:30;102040.81;;;20.98;49.39
61394;BME280;48555;50.952;-0.120;2023-05-24T06:21:57;102057.09;;;21.13;49.46
61394;BME280;48555;50.952;-0.120;2023-05-24T06:24:22;102046.38;;;21.32;49.01
61394;BME280;48555;50.952;-0.120;2023-05-24T06:26:50;102052.06;;;21.47;48.34
61394;BME280;48555;50.952;-0.120;2023-05-24T06:29:17;102055.88;;;21.63;47.81
61394;BME280;48555;50.952;-0.120;2023-05-24T06:31:46;102053.94;;;21.83;48.06
61394;BME280;48555;50.952;-0.120;2023-05-24T06:34:12;102050.53;;;22.16;47.37
61394;BME280;48555;50.952;-0.120;2023-05-24T06:36:41;102050.88;;;22.57;46.09
61394;BME280;48555;50.952;-0.120;2023-05-24T06:39:11;102065.47;;;22.97;45.53
61394;BME280;48555;50.952;-0.120;2023-05-24T06:41:37;102060.59;;;23.27;44.22
61394;BME280;48555;50.952;-0.120;2023-05-24T06:44:03;102072.53;;;23.57;43.79
61394;BME280;48555;50.952;-0.120;2023-05-24T06:46:28;102075.56;;;23.70;43.53
61394;BME280;48555;50.952;-0.120;2023-05-24T06:48:54;102074.78;;;23.86;43.19
61394;BME280;48555;50.952;-0.120;2023-05-24T06:51:19;102081.28;;;24.00;43.17
61394;BME280;48555;50.952;-0.120;2023-05-24T06:53:45;102068.78;;;24.09;42.67
61394;BME280;48555;50.952;-0.120;2023-05-24T06:56:10;102073.63;;;24.21;42.23
61394;BME280;48555;50.952;-0.120;2023-05-24T06:58:35;102070.78;;;24.31;42.19
61394;BME280;48555;50.952;-0.120;2023-05-24T07:01:02;102067.91;;;24.41;42.00
61394;BME280;48555;50.952;-0.120;2023-05-24T07:03:31;102067.13;;;24.48;41.01
61394;BME280;48555;50.952;-0.120;2023-05-24T07:05:57;102063.94;;;24.53;40.56
61394;BME280;48555;50.952;-0.120;2023-05-24T07:08:24;102053.25;;;24.45;40.29
61394;BME280;48555;50.952;-0.120;2023-05-24T07:10:49;102065.25;;;24.41;40.62
61394;BME280;48555;50.952;-0.120;2023-05-24T07:13:15;102063.75;;;24.38;41.09
61394;BME280;48555;50.952;-0.120;2023-05-24T07:15:41;102048.72;;;24.37;40.96
61394;BME280;48555;50.952;-0.120;2023-05-24T07:18:06;102064.28;;;24.34;41.19
61394;BME280;48555;50.952;-0.120;2023-05-24T07:20:32;102061.09;;;24.30;40.90
61394;BME280;48555;50.952;-0.120;2023-05-24T07:22:57;102054.91;;;24.38;40.89
61394;BME280;48555;50.952;-0.120;2023-05-24T07:25:24;102049.91;;;24.51;40.87
61394;BME280;48555;50.952;-0.120;2023-05-24T07:27:49;102048.38;;;24.65;40.45
61394;BME280;48555;50.952;-0.120;2023-05-24T07:30:15;102047.34;;;24.74;40.51
61394;BME280;48555;50.952;-0.120;2023-05-24T07:32:41;102054.56;;;24.65;39.26
61394;BME280;48555;50.952;-0.120;2023-05-24T07:35:07;102049.22;;;24.41;38.62
61394;BME280;48555;50.952;-0.120;2023-05-24T07:37:32;102052.84;;;23.66;38.90
61394;BME280;48555;50.952;-0.120;2023-05-24T07:39:57;102052.16;;;23.05;40.27
61394;BME280;48555;50.952;-0.120;2023-05-24T07:42:23;102048.47;;;22.72;41.13
61394;BME280;48555;50.952;-0.120;2023-05-24T07:44:48;102050.03;;;22.57;41.08
61394;BME280;48555;50.952;-0.120;2023-05-24T07:47:14;102048.97;;;22.76;40.83
61394;BME280;48555;50.952;-0.120;2023-05-24T07:49:39;102036.91;;;22.63;41.57
61394;BME280;48555;50.952;-0.120;2023-05-24T07:52:05;102040.47;;;22.72;41.43
61394;BME280;48555;50.952;-0.120;2023-05-24T07:54:30;102044.53;;;22.84;41.68
61394;BME280;48555;50.952;-0.120;2023-05-24T07:56:56;102040.72;;;22.61;41.08
61394;BME280;48555;50.952;-0.120;2023-05-24T07:59:22;102043.38;;;22.87;42.09
61394;BME280;48555;50.952;-0.120;2023-05-24T08:01:47;102048.69;;;23.13;41.83
61394;BME280;48555;50.952;-0.120;2023-05-24T08:04:13;102043.44;;;23.38;41.07
61394;BME280;48555;50.952;-0.120;2023-05-24T08:06:38;102047.78;;;23.39;40.81
61394;BME280;48555;50.952;-0.120;2023-05-24T08:09:04;102048.97;;;23.44;40.77
61394;BME280;48555;50.952;-0.120;2023-05-24T08:11:29;102041.78;;;23.53;40.98
61394;BME280;48555;50.952;-0.120;2023-05-24T08:13:55;102040.66;;;23.64;41.38
61394;BME280;48555;50.952;-0.120;2023-05-24T08:16:20;102036.22;;;23.22;40.31
61394;BME280;48555;50.952;-0.120;2023-05-24T08:18:46;102045.31;;;23.45;40.17
61394;BME280;48555;50.952;-0.120;2023-05-24T08:21:11;102040.84;;;23.11;40.50
61394;BME280;48555;50.952;-0.120;2023-05-24T08:23:36;102035.81;;;23.00;41.01
61394;BME280;48555;50.952;-0.120;2023-05-24T08:26:02;102033.91;;;23.27;41.02
61394;BME280;48555;50.952;-0.120;2023-05-24T08:28:27;102028.31;;;23.04;40.50
61394;BME280;48555;50.952;-0.120;2023-05-24T08:30:53;102036.31;;;23.04;40.84
61394;BME280;48555;50.952;-0.120;2023-05-24T08:33:18;102030.84;;;23.13;40.34
61394;BME280;48555;50.952;-0.120;2023-05-24T08:35:44;102031.44;;;22.99;40.25
61394;BME280;48555;50.952;-0.120;2023-05-24T08:38:09;102027.50;;;23.03;39.64
61394;BME280;48555;50.952;-0.120;2023-05-24T08:40:35;102038.22;;;22.94;39.60
61394;BME280;48555;50.952;-0.120;2023-05-24T08:43:01;102029.16;;;22.26;40.43
61394;BME280;48555;50.952;-0.120;2023-05-24T08:45:31;102028.50;;;21.88;40.47
61394;BME280;48555;50.952;-0.120;2023-05-24T08:47:57;102036.97;;;21.38;42.37
61394;BME280;48555;50.952;-0.120;2023-05-24T08:50:23;102041.56;;;21.46;42.65
61394;BME280;48555;50.952;-0.120;2023-05-24T08:52:50;102034.53;;;20.90;43.56
61394;BME280;48555;50.952;-0.120;2023-05-24T08:55:16;102042.94;;;20.95;43.31
61394;BME280;48555;50.952;-0.120;2023-05-24T08:57:43;102043.06;;;20.07;45.02
61394;BME280;48555;50.952;-0.120;2023-05-24T09:00:10;102041.78;;;19.63;46.32
61394;BME280;48555;50.952;-0.120;2023-05-24T09:02:40;102038.19;;;20.03;46.44
61394;BME280;48555;50.952;-0.120;2023-05-24T09:05:12;102037.00;;;20.44;45.49
61394;BME280;48555;50.952;-0.120;2023-05-24T09:07:44;102041.56;;;20.81;44.04
61394;BME280;48555;50.952;-0.120;2023-05-24T09:10:11;102030.94;;;20.81;44.96
61394;BME280;48555;50.952;-0.120;2023-05-24T09:12:38;102029.69;;;21.40;44.23
61394;BME280;48555;50.952;-0.120;2023-05-24T09:15:05;102018.75;;;21.79;43.70
61394;BME280;48555;50.952;-0.120;2023-05-24T09:17:30;102033.44;;;22.19;43.36
61394;BME280;48555;50.952;-0.120;2023-05-24T09:19:57;102029.22;;;22.16;42.24
61394;BME280;48555;50.952;-0.120;2023-05-24T09:22:25;102026.91;;;21.77;41.73
61394;BME280;48555;50.952;-0.120;2023-05-24T09:24:52;102020.88;;;21.58;42.85
61394;BME280;48555;50.952;-0.120;2023-05-24T09:27:18;102019.88;;;22.12;42.93
61394;BME280;48555;50.952;-0.120;2023-05-24T09:29:48;102021.50;;;22.49;42.03
61394;BME280;48555;50.952;-0.120;2023-05-24T09:32:14;102024.03;;;22.51;41.33
61394;BME280;48555;50.952;-0.120;2023-05-24T09:34:41;102025.72;;;22.86;41.16
61394;BME280;48555;50.952;-0.120;2023-05-24T09:37:14;102010.91;;;22.92;39.99
61394;BME280;48555;50.952;-0.120;2023-05-24T09:39:41;102011.91;;;22.64;39.62
61394;BME280;48555;50.952;-0.120;2023-05-24T09:42:07;102010.19;;;22.55;39.31
61394;BME280;48555;50.952;-0.120;2023-05-24T09:44:32;102011.75;;;21.96;40.42
61394;BME280;48555;50.952;-0.120;2023-05-24T09:47:02;102016.94;;;21.97;40.77
61394;BME280;48555;50.952;-0.120;2023-05-24T09:49:31;102005.31;;;21.45;40.86
61394;BME280;48555;50.952;-0.120;2023-05-24T09:51:57;102000.72;;;21.73;41.35
61394;BME280;48555;50.952;-0.120;2023-05-24T09:54:26;102010.63;;;21.81;42.22
61394;BME280;48555;50.952;-0.120;2023-05-24T09:56:51;102001.31;;;22.03;41.77
61394;BME280;48555;50.952;-0.120;2023-05-24T09:59:17;102000.09;;;22.33;41.68
61394;BME280;48555;50.952;-0.120;2023-05-24T10:01:43;101989.59;;;22.13;40.79
61394;BME280;48555;50.952;-0.120;2023-05-24T10:04:10;101993.25;;;22.64;40.07
61394;BME280;48555;50.952;-0.120;2023-05-24T10:06:35;101987.47;;;22.43;40.13
61394;BME280;48555;50.952;-0.120;2023-05-24T10:09:03;101987.28;;;22.71;39.09
61394;BME280;48555;50.952;-0.120;2023-05-24T10:11:34;101984.31;;;22.74;39.14
61394;BME280;48555;50.952;-0.120;2023-05-24T10:14:03;101983.34;;;22.49;40.06
61394;BME280;48555;50.952;-0.120;2023-05-24T10:16:28;101978.78;;;22.67;39.59
61394;BME280;48555;50.952;-0.120;2023-05-24T10:18:54;101979.91;;;22.56;39.51
61394;BME280;48555;50.952;-0.120;2023-05-24T10:21:22;101979.88;;;22.90;39.38
61394;BME280;48555;50.952;-0.120;2023-05-24T10:23:50;101980.00;;;23.15;39.54
61394;BME280;48555;50.952;-0.120;2023-05-24T10:26:18;101977.47;;;23.13;38.75
61394;BME280;48555;50.952;-0.120;2023-05-24T10:28:47;101982.31;;;22.76;38.62
61394;BME280;48555;50.952;-0.120;2023-05-24T10:31:21;101986.53;;;22.86;38.54
61394;BME280;48555;50.952;-0.120;2023-05-24T10:33:48;101992.97;;;22.76;38.35
61394;BME280;48555;50.952;-0.120;2023-05-24T10:36:16;101993.19;;;22.48;37.26
61394;BME280;48555;50.952;-0.120;2023-05-24T10:38:45;101991.69;;;22.80;38.18
61394;BME280;48555;50.952;-0.120;2023-05-24T10:41:10;101997.50;;;23.09;37.96
61394;BME280;48555;50.952;-0.120;2023-05-24T10:43:37;101992.38;;;23.24;38.15
61394;BME280;48555;50.952;-0.120;2023-05-24T10:46:04;101987.22;;;23.39;38.11
61394;BME280;48555;50.952;-0.120;2023-05-24T10:48:37;101981.91;;;23.55;37.77
61394;BME280;48555;50.952;-0.120;2023-05-24T10:51:33;101985.75;;;23.45;36.11
61394;BME280;48555;50.952;-0.120;2023-05-24T10:54:11;101981.69;;;23.24;35.95
61394;BME280;48555;50.952;-0.120;2023-05-24T10:56:45;101980.44;;;23.02;36.99
61394;BME280;48555;50.952;-0.120;2023-05-24T11:01:57;101980.56;;;23.51;36.79
61394;BME280;48555;50.952;-0.120;2023-05-24T11:04:23;101978.59;;;23.70;36.22
61394;BME280;48555;50.952;-0.120;2023-05-24T11:06:53;101978.97;;;23.83;36.29
61394;BME280;48555;50.952;-0.120;2023-05-24T11:09:20;101977.72;;;23.53;36.29
61394;BME280;48555;50.952;-0.120;2023-05-24T11:11:48;101971.28;;;23.72;36.85
61394;BME280;48555;50.952;-0.120;2023-05-24T11:14:22;101969.69;;;23.28;36.83
61394;BME280;48555;50.952;-0.120;2023-05-24T11:16:49;101971.72;;;23.43;37.50
61394;BME280;48555;50.952;-0.120;2023-05-24T11:19:23;101976.44;;;22.98;36.71
61394;BME280;48555;50.952;-0.120;2023-05-24T11:21:52;101979.16;;;23.15;37.28
61394;BME280;48555;50.952;-0.120;2023-05-24T11:24:19;101970.34;;;23.22;36.22
61394;BME280;48555;50.952;-0.120;2023-05-24T11:26:45;101973.66;;;22.82;37.13
61394;BME280;48555;50.952;-0.120;2023-05-24T11:29:14;101980.94;;;23.06;36.76
61394;BME280;48555;50.952;-0.120;2023-05-24T11:31:57;101972.19;;;23.38;36.91
61394;BME280;48555;50.952;-0.120;2023-05-24T11:34:29;101966.06;;;23.62;37.51
61394;BME280;48555;50.952;-0.120;2023-05-24T11:36:56;101963.94;;;23.74;36.74
61394;BME280;48555;50.952;-0.120;2023-05-24T11:39:23;101966.88;;;23.54;36.64
61394;BME280;48555;50.952;-0.120;2023-05-24T11:41:52;101959.75;;;23.88;36.54
61394;BME280;48555;50.952;-0.120;2023-05-24T11:44:18;101963.72;;;24.16;37.20
61394;BME280;48555;50.952;-0.120;2023-05-24T11:46:44;101959.19;;;24.33;36.40
61394;BME280;48555;50.952;-0.120;2023-05-24T11:49:14;101965.19;;;24.43;35.86
61394;BME280;48555;50.952;-0.120;2023-05-24T11:51:39;101963.38;;;24.28;35.54
61394;BME280;48555;50.952;-0.120;2023-05-24T11:54:05;101959.41;;;24.07;36.91
61394;BME280;48555;50.952;-0.120;2023-05-24T11:56:30;101967.41;;;24.15;36.49
61394;BME280;48555;50.952;-0.120;2023-05-24T11:59:22;101958.22;;;24.10;36.24
61394;BME280;48555;50.952;-0.120;2023-05-24T12:01:48;101966.25;;;24.01;36.97
61394;BME280;48555;50.952;-0.120;2023-05-24T12:04:14;101962.75;;;24.09;37.49
61394;BME280;48555;50.952;-0.120;2023-05-24T12:06:42;101957.56;;;24.16;36.46
61394;BME280;48555;50.952;-0.120;2023-05-24T12:09:09;101964.53;;;24.33;36.67
61394;BME280;48555;50.952;-0.120;2023-05-24T12:11:47;101946.50;;;24.27;36.41
61394;BME280;48555;50.952;-0.120;2023-05-24T12:14:15;101953.03;;;24.08;35.67
61394;BME280;48555;50.952;-0.120;2023-05-24T12:16:42;101944.53;;;23.88;36.17
61394;BME280;48555;50.952;-0.120;2023-05-24T12:19:12;101939.03;;;23.98;36.33
61394;BME280;48555;50.952;-0.120;2023-05-24T12:21:40;101939.00;;;24.14;37.14
61394;BME280;48555;50.952;-0.120;2023-05-24T12:24:09;101930.28;;;24.20;37.60
61394;BME280;48555;50.952;-0.120;2023-05-24T12:26:39;101943.66;;;24.29;36.78
61394;BME280;48555;50.952;-0.120;2023-05-24T12:29:05;101938.56;;;23.78;35.44
61394;BME280;48555;50.952;-0.120;2023-05-24T12:31:31;101933.03;;;23.79;35.18
61394;BME280;48555;50.952;-0.120;2023-05-24T12:33:56;101934.34;;;23.43;35.92
61394;BME280;48555;50.952;-0.120;2023-05-24T12:36:22;101933.56;;;23.83;36.22
61394;BME280;48555;50.952;-0.120;2023-05-24T12:38:47;101925.16;;;23.62;35.86
61394;BME280;48555;50.952;-0.120;2023-05-24T12:41:13;101936.50;;;23.31;37.38
61394;BME280;48555;50.952;-0.120;2023-05-24T12:43:38;101935.16;;;23.43;37.32
61394;BME280;48555;50.952;-0.120;2023-05-24T12:46:04;101931.47;;;23.20;37.25
61394;BME280;48555;50.952;-0.120;2023-05-24T12:48:30;101929.47;;;23.38;36.66
61394;BME280;48555;50.952;-0.120;2023-05-24T12:50:55;101924.19;;;23.63;36.29
61394;BME280;48555;50.952;-0.120;2023-05-24T12:53:20;101930.84;;;23.58;36.70
61394;BME280;48555;50.952;-0.120;2023-05-24T12:55:48;101943.88;;;23.70;36.97
61394;BME280;48555;50.952;-0.120;2023-05-24T12:58:15;101929.03;;;23.75;36.00